createdAt,value
2023-04-24T00:00:20.325Z,0.00
2023-04-24T00:01:20.313Z,0.00
2023-04-24T00:02:20.511Z,0.00
2023-04-24T00:03:20.412Z,0.00
2023-04-24T00:04:20.463Z,0.00
2023-04-24T00:05:20.285Z,0.00
2023-04-24T00:06:20.272Z,0.00
2023-04-24T00:07:20.260Z,0.00
2023-04-24T00:08:21.046Z,0.00
2023-04-24T00:09:20.260Z,0.00
2023-04-24T00:10:20.240Z,0.00
2023-04-24T00:11:20.216Z,0.00
2023-04-24T00:12:20.220Z,0.00
2023-04-24T00:13:20.206Z,0.00
2023-04-24T00:14:20.196Z,0.00
2023-04-24T00:15:20.213Z,0.00
2023-04-24T00:16:20.185Z,0.00
2023-04-24T00:17:20.162Z,0.00
2023-04-24T00:18:20.156Z,0.00
2023-04-24T00:19:20.146Z,0.00
2023-04-24T00:20:20.129Z,0.00
2023-04-24T00:21:20.167Z,0.00
2023-04-24T00:22:20.107Z,0.00
2023-04-24T00:23:20.108Z,0.00
2023-04-24T00:24:20.093Z,0.00
2023-04-24T00:25:20.076Z,0.00
2023-04-24T00:26:20.066Z,0.00
2023-04-24T00:27:20.099Z,0.00
2023-04-24T00:28:20.048Z,0.00
2023-04-24T00:29:20.062Z,0.00
2023-04-24T00:30:20.039Z,0.00
2023-04-24T00:31:20.018Z,0.00
2023-04-24T00:32:20.077Z,0.00
2023-04-24T00:33:20.036Z,0.00
2023-04-24T00:34:19.985Z,0.00
2023-04-24T00:35:19.979Z,0.00
2023-04-24T00:36:19.961Z,0.00
2023-04-24T00:37:19.959Z,0.00
2023-04-24T00:38:19.939Z,0.00
2023-04-24T00:39:19.976Z,0.00
2023-04-24T00:40:19.922Z,0.00
2023-04-24T00:41:19.958Z,0.00
2023-04-24T00:42:19.910Z,0.00
2023-04-24T00:43:19.908Z,0.00
2023-04-24T00:44:19.879Z,0.00
2023-04-24T00:45:41.978Z,0.00
2023-04-24T00:46:19.897Z,0.00
2023-04-24T00:47:19.856Z,0.00
2023-04-24T00:48:19.913Z,0.00
2023-04-24T00:49:19.828Z,0.00
2023-04-24T00:50:19.832Z,0.00
2023-04-24T00:51:19.850Z,0.00
2023-04-24T00:52:19.818Z,0.00
2023-04-24T00:53:19.802Z,0.00
2023-04-24T00:54:19.799Z,0.00
2023-04-24T00:55:19.782Z,0.00
2023-04-24T00:56:19.787Z,0.00
2023-04-24T00:57:19.786Z,0.00
2023-04-24T00:58:19.750Z,0.00
2023-04-24T00:59:19.733Z,0.00
2023-04-24T01:00:19.730Z,0.00
2023-04-24T01:01:19.748Z,0.00
2023-04-24T01:02:19.837Z,0.00
2023-04-24T01:03:19.906Z,0.00
2023-04-24T01:04:19.734Z,0.00
2023-04-24T01:05:19.685Z,0.00
2023-04-24T01:06:19.671Z,0.00
2023-04-24T01:07:19.666Z,0.00
2023-04-24T01:08:19.648Z,0.00
2023-04-24T01:09:19.670Z,0.00
2023-04-24T01:10:19.624Z,0.00
2023-04-24T01:11:19.614Z,0.00
2023-04-24T01:12:19.621Z,0.00
2023-04-24T01:13:19.609Z,0.00
2023-04-24T01:14:19.593Z,0.00
2023-04-24T01:15:19.607Z,0.00
2023-04-24T01:16:19.589Z,0.00
2023-04-24T01:17:19.565Z,0.00
2023-04-24T01:18:19.550Z,0.00
2023-04-24T01:19:19.564Z,0.00
2023-04-24T01:20:19.523Z,0.00
2023-04-24T01:21:19.575Z,0.00
2023-04-24T01:22:19.514Z,0.00
2023-04-24T01:23:19.495Z,0.00
2023-04-24T01:24:19.486Z,0.00
2023-04-24T01:25:19.476Z,0.00
2023-04-24T01:26:19.464Z,0.00
2023-04-24T01:27:19.494Z,0.00
2023-04-24T01:28:19.461Z,0.00
2023-04-24T01:29:19.460Z,0.00
2023-04-24T01:30:19.435Z,0.00
2023-04-24T01:31:19.477Z,0.00
2023-04-24T01:32:19.446Z,0.00
2023-04-24T01:33:19.439Z,0.00
2023-04-24T01:34:19.398Z,0.00
2023-04-24T01:35:19.383Z,0.00
2023-04-24T01:36:19.402Z,0.00
2023-04-24T01:37:19.367Z,0.00
2023-04-24T01:38:19.353Z,0.00
2023-04-24T01:39:19.386Z,0.00
2023-04-24T01:40:19.348Z,0.00
2023-04-24T01:41:19.344Z,0.00
2023-04-24T01:42:19.317Z,0.00
2023-04-24T01:43:19.323Z,0.00
2023-04-24T01:44:19.288Z,0.00
2023-04-24T01:45:19.312Z,0.00
2023-04-24T01:46:19.318Z,0.00
2023-04-24T01:47:19.258Z,0.00
2023-04-24T01:48:19.252Z,0.00
2023-04-24T01:49:19.237Z,0.00
2023-04-24T01:50:19.222Z,0.00
2023-04-24T01:51:19.243Z,0.00
2023-04-24T01:52:19.210Z,0.00
2023-04-24T01:53:19.213Z,0.00
2023-04-24T01:54:19.190Z,0.00
2023-04-24T01:55:19.177Z,0.00
2023-04-24T01:56:19.162Z,0.00
2023-04-24T01:57:19.207Z,0.00
2023-04-24T01:58:19.147Z,0.00
2023-04-24T01:59:19.141Z,0.00
2023-04-24T02:00:19.135Z,0.00
2023-04-24T02:01:19.180Z,0.00
2023-04-24T02:02:19.255Z,0.00
2023-04-24T02:03:19.279Z,0.00
2023-04-24T02:04:19.183Z,0.00
2023-04-24T02:05:19.093Z,0.00
2023-04-24T02:06:19.066Z,0.00
2023-04-24T02:07:19.063Z,0.00
2023-04-24T02:08:19.060Z,0.00
2023-04-24T02:09:19.081Z,0.00
2023-04-24T02:10:19.034Z,0.00
2023-04-24T02:11:19.032Z,0.00
2023-04-24T02:12:19.016Z,0.00
2023-04-24T02:13:19.000Z,0.00
2023-04-24T02:14:18.994Z,0.00
2023-04-24T02:15:19.015Z,0.00
2023-04-24T02:16:19.058Z,0.00
2023-04-24T02:17:18.958Z,0.00
2023-04-24T02:18:18.952Z,0.00
2023-04-24T02:19:18.942Z,0.00
2023-04-24T02:20:18.944Z,0.00
2023-04-24T02:21:18.952Z,0.00
2023-04-24T02:22:18.937Z,0.00
2023-04-24T02:23:18.900Z,0.00
2023-04-24T02:24:18.895Z,0.00
2023-04-24T02:25:18.871Z,0.00
2023-04-24T02:26:18.863Z,0.00
2023-04-24T02:27:18.918Z,0.00
2023-04-24T02:28:18.862Z,0.00
2023-04-24T02:29:18.839Z,0.00
2023-04-24T02:30:18.848Z,0.00
2023-04-24T02:31:18.820Z,0.00
2023-04-24T02:32:18.833Z,0.00
2023-04-24T02:33:18.823Z,0.00
2023-04-24T02:34:18.776Z,0.00
2023-04-24T02:35:18.847Z,0.00
2023-04-24T02:36:18.767Z,0.00
2023-04-24T02:37:18.765Z,0.00
2023-04-24T02:38:18.744Z,0.00
2023-04-24T02:39:18.772Z,0.00
2023-04-24T02:40:18.716Z,0.00
2023-04-24T02:41:18.717Z,0.00
2023-04-24T02:42:18.694Z,0.00
2023-04-24T02:43:18.694Z,0.00
2023-04-24T02:44:18.724Z,0.00
2023-04-24T02:45:18.723Z,0.00
2023-04-24T02:46:18.752Z,0.00
2023-04-24T02:47:18.649Z,0.00
2023-04-24T02:48:18.646Z,0.00
2023-04-24T02:49:18.638Z,0.00
2023-04-24T02:50:18.633Z,0.00
2023-04-24T02:51:18.674Z,0.00
2023-04-24T02:52:18.607Z,0.00
2023-04-24T02:53:18.621Z,0.00
2023-04-24T02:54:18.543Z,1.00
2023-04-24T02:55:18.585Z,0.00
2023-04-24T02:56:18.566Z,0.00
2023-04-24T02:57:18.580Z,0.00
2023-04-24T02:58:18.543Z,0.00
2023-04-24T02:59:18.541Z,0.00
2023-04-24T03:00:18.537Z,0.00
2023-04-24T03:01:18.559Z,0.00
2023-04-24T03:02:18.585Z,0.00
2023-04-24T03:03:18.609Z,0.00
2023-04-24T03:04:18.601Z,0.00
2023-04-24T03:05:18.442Z,2.00
2023-04-24T03:06:18.398Z,1.00
2023-04-24T03:07:18.404Z,1.00
2023-04-24T03:08:18.383Z,1.00
2023-04-24T03:09:18.512Z,1.00
2023-04-24T03:10:18.361Z,1.00
2023-04-24T03:11:18.356Z,1.00
2023-04-24T03:12:18.341Z,3.00
2023-04-24T03:13:18.341Z,2.00
2023-04-24T03:14:18.322Z,2.00
2023-04-24T03:15:18.584Z,1.00
2023-04-24T03:16:18.341Z,2.00
2023-04-24T03:17:18.306Z,1.00
2023-04-24T03:18:18.370Z,1.00
2023-04-24T03:19:18.283Z,2.00
2023-04-24T03:20:18.265Z,3.00
2023-04-24T03:21:18.310Z,2.00
2023-04-24T03:22:18.258Z,2.00
2023-04-24T03:23:18.248Z,3.00
2023-04-24T03:24:18.233Z,4.00
2023-04-24T03:25:18.225Z,4.00
2023-04-24T03:26:18.212Z,3.00
2023-04-24T03:27:18.224Z,3.00
2023-04-24T03:28:18.193Z,4.00
2023-04-24T03:29:18.184Z,4.00
2023-04-24T03:30:18.173Z,4.00
2023-04-24T03:31:18.225Z,4.00
2023-04-24T03:32:18.193Z,5.00
2023-04-24T03:33:18.205Z,6.00
2023-04-24T03:34:18.127Z,6.00
2023-04-24T03:35:18.130Z,5.00
2023-04-24T03:36:18.122Z,5.00
2023-04-24T03:37:18.115Z,5.00
2023-04-24T03:38:18.099Z,7.00
2023-04-24T03:39:18.129Z,7.00
2023-04-24T03:40:18.063Z,7.00
2023-04-24T03:41:18.064Z,15.00
2023-04-24T03:42:18.057Z,12.00
2023-04-24T03:43:18.036Z,13.00
2023-04-24T03:44:18.027Z,14.00
2023-04-24T03:45:18.058Z,13.00
2023-04-24T03:46:18.039Z,11.00
2023-04-24T03:47:18.003Z,10.00
2023-04-24T03:48:17.992Z,12.00
2023-04-24T03:49:17.981Z,13.00
2023-04-24T03:50:17.980Z,14.00
2023-04-24T03:51:17.982Z,15.00
2023-04-24T03:52:17.942Z,17.00
2023-04-24T03:53:17.944Z,19.00
2023-04-24T03:54:17.929Z,20.00
2023-04-24T03:55:17.918Z,20.00
2023-04-24T03:56:17.894Z,21.00
2023-04-24T03:57:17.941Z,22.00
2023-04-24T03:58:17.890Z,24.00
2023-04-24T03:59:17.891Z,25.00
2023-04-24T04:00:17.868Z,26.00
2023-04-24T04:01:17.868Z,27.00
2023-04-24T04:02:17.963Z,28.00
2023-04-24T04:03:18.187Z,28.00
2023-04-24T04:04:18.065Z,29.00
2023-04-24T04:05:17.859Z,30.00
2023-04-24T04:06:17.811Z,31.00
2023-04-24T04:07:17.799Z,33.00
2023-04-24T04:08:17.798Z,34.00
2023-04-24T04:09:17.815Z,37.00
2023-04-24T04:10:17.771Z,38.00
2023-04-24T04:11:17.766Z,40.00
2023-04-24T04:12:17.749Z,41.00
2023-04-24T04:13:17.739Z,40.00
2023-04-24T04:14:17.733Z,40.00
2023-04-24T04:15:17.754Z,40.00
2023-04-24T04:16:17.731Z,41.00
2023-04-24T04:17:17.708Z,41.00
2023-04-24T04:18:17.714Z,38.00
2023-04-24T04:19:17.682Z,38.00
2023-04-24T04:20:17.659Z,42.00
2023-04-24T04:21:17.672Z,46.00
2023-04-24T04:22:17.639Z,50.00
2023-04-24T04:23:17.633Z,53.00
2023-04-24T04:24:17.620Z,55.00
2023-04-24T04:25:17.614Z,59.00
2023-04-24T04:26:17.601Z,65.00
2023-04-24T04:27:17.625Z,73.00
2023-04-24T04:28:17.588Z,80.00
2023-04-24T04:29:18.738Z,85.00
2023-04-24T04:30:17.554Z,87.00
2023-04-24T04:31:17.563Z,86.00
2023-04-24T04:32:17.535Z,84.00
2023-04-24T04:33:17.625Z,77.00
2023-04-24T04:34:17.519Z,70.00
2023-04-24T04:35:17.510Z,66.00
2023-04-24T04:36:17.494Z,64.00
2023-04-24T04:37:17.481Z,65.00
2023-04-24T04:38:17.487Z,68.00
2023-04-24T04:39:17.492Z,72.00
2023-04-24T04:40:17.481Z,74.00
2023-04-24T04:41:17.459Z,75.00
2023-04-24T04:42:17.438Z,74.00
2023-04-24T04:43:17.453Z,74.00
2023-04-24T04:44:17.429Z,74.00
2023-04-24T04:45:17.449Z,75.00
2023-04-24T04:46:17.510Z,77.00
2023-04-24T04:47:17.428Z,78.00
2023-04-24T04:48:17.388Z,80.00
2023-04-24T04:49:17.380Z,81.00
2023-04-24T04:50:17.375Z,83.00
2023-04-24T04:51:17.403Z,85.00
2023-04-24T04:52:17.338Z,86.00
2023-04-24T04:53:17.341Z,88.00
2023-04-24T04:54:17.330Z,89.00
2023-04-24T04:55:17.319Z,89.00
2023-04-24T04:56:17.320Z,87.00
2023-04-24T04:57:17.321Z,89.00
2023-04-24T04:58:17.290Z,99.00
2023-04-24T04:59:17.269Z,98.00
2023-04-24T05:00:17.259Z,89.00
2023-04-24T05:01:17.273Z,77.00
2023-04-24T05:02:17.325Z,64.00
2023-04-24T05:03:21.153Z,61.00
2023-04-24T05:04:17.354Z,58.00
2023-04-24T05:05:17.246Z,60.00
2023-04-24T05:06:17.207Z,63.00
2023-04-24T05:07:17.194Z,66.00
2023-04-24T05:08:26.471Z,70.00
2023-04-24T05:09:18.190Z,76.00
2023-04-24T05:10:17.163Z,82.00
2023-04-24T05:11:17.164Z,86.00
2023-04-24T05:12:17.141Z,87.00
2023-04-24T05:13:19.203Z,87.00
2023-04-24T05:14:18.116Z,90.00
2023-04-24T05:15:17.128Z,91.00
2023-04-24T05:16:17.153Z,99.00
2023-04-24T05:17:17.241Z,102.00
2023-04-24T05:18:17.098Z,88.00
2023-04-24T05:19:17.092Z,80.00
2023-04-24T05:20:17.066Z,80.00
2023-04-24T05:21:17.092Z,81.00
2023-04-24T05:22:17.054Z,83.00
2023-04-24T05:23:17.045Z,84.00
2023-04-24T05:24:17.038Z,87.00
2023-04-24T05:25:17.030Z,90.00
2023-04-24T05:26:17.008Z,96.00
2023-04-24T05:27:17.036Z,102.00
2023-04-24T05:28:16.989Z,109.00
2023-04-24T05:29:17.005Z,114.00
2023-04-24T05:30:16.980Z,121.00
2023-04-24T05:31:16.995Z,130.00
2023-04-24T05:32:16.945Z,136.00
2023-04-24T05:33:16.973Z,135.00
2023-04-24T05:34:16.927Z,130.00
2023-04-24T05:35:16.916Z,129.00
2023-04-24T05:36:16.904Z,132.00
2023-04-24T05:37:16.897Z,127.00
2023-04-24T05:38:16.889Z,119.00
2023-04-24T05:39:16.908Z,132.00
2023-04-24T05:40:16.858Z,117.00
2023-04-24T05:41:16.848Z,108.00
2023-04-24T05:42:16.834Z,99.00
2023-04-24T05:43:16.820Z,100.00
2023-04-24T05:44:16.813Z,91.00
2023-04-24T05:45:16.837Z,95.00
2023-04-24T05:46:16.819Z,100.00
2023-04-24T05:47:16.781Z,105.00
2023-04-24T05:48:16.780Z,125.00
2023-04-24T05:49:16.758Z,133.00
2023-04-24T05:50:16.761Z,128.00
2023-04-24T05:51:16.776Z,111.00
2023-04-24T05:52:16.746Z,118.00
2023-04-24T05:53:16.733Z,109.00
2023-04-24T05:54:16.722Z,107.00
2023-04-24T05:55:16.708Z,95.00
2023-04-24T05:56:16.716Z,97.00
2023-04-24T05:57:16.718Z,106.00
2023-04-24T05:58:16.686Z,109.00
2023-04-24T05:59:16.661Z,111.00
2023-04-24T06:00:16.662Z,109.00
2023-04-24T06:01:16.646Z,114.00
2023-04-24T06:02:16.749Z,98.00
2023-04-24T06:03:16.854Z,78.00
2023-04-24T06:04:17.132Z,87.00
2023-04-24T06:05:16.642Z,98.00
2023-04-24T06:06:16.600Z,112.00
2023-04-24T06:07:16.593Z,121.00
2023-04-24T06:08:16.588Z,128.00
2023-04-24T06:09:16.591Z,134.00
2023-04-24T06:10:16.569Z,138.00
2023-04-24T06:11:16.548Z,137.00
2023-04-24T06:12:16.535Z,138.00
2023-04-24T06:13:16.514Z,139.00
2023-04-24T06:14:16.514Z,140.00
2023-04-24T06:15:16.536Z,137.00
2023-04-24T06:16:16.543Z,134.00
2023-04-24T06:17:16.487Z,135.00
2023-04-24T06:18:16.470Z,142.00
2023-04-24T06:19:16.457Z,154.00
2023-04-24T06:20:16.455Z,170.00
2023-04-24T06:21:16.465Z,188.00
2023-04-24T06:22:16.430Z,211.00
2023-04-24T06:23:16.463Z,239.00
2023-04-24T06:24:16.434Z,273.00
2023-04-24T06:25:16.388Z,299.00
2023-04-24T06:26:16.390Z,323.00
2023-04-24T06:27:16.391Z,325.00
2023-04-24T06:28:16.367Z,319.00
2023-04-24T06:29:16.349Z,347.00
2023-04-24T06:30:16.354Z,316.00
2023-04-24T06:31:16.342Z,299.00
2023-04-24T06:32:16.429Z,304.00
2023-04-24T06:33:21.092Z,322.00
2023-04-24T06:34:17.309Z,358.00
2023-04-24T06:35:16.322Z,397.00
2023-04-24T06:36:16.291Z,413.00
2023-04-24T06:37:16.278Z,465.00
2023-04-24T06:38:16.273Z,522.00
2023-04-24T06:39:16.277Z,445.00
2023-04-24T06:40:16.258Z,298.00
2023-04-24T06:41:16.243Z,276.00
2023-04-24T06:42:16.225Z,278.00
2023-04-24T06:43:16.230Z,279.00
2023-04-24T06:44:16.218Z,283.00
2023-04-24T06:45:16.680Z,293.00
2023-04-24T06:46:16.233Z,301.00
2023-04-24T06:47:16.181Z,299.00
2023-04-24T06:48:16.172Z,356.00
2023-04-24T06:49:16.155Z,330.00
2023-04-24T06:50:16.160Z,334.00
2023-04-24T06:51:16.161Z,291.00
2023-04-24T06:52:16.136Z,261.00
2023-04-24T06:53:16.116Z,260.00
2023-04-24T06:54:16.103Z,261.00
2023-04-24T06:55:16.091Z,269.00
2023-04-24T06:56:16.081Z,270.00
2023-04-24T06:57:16.098Z,277.00
2023-04-24T06:58:16.077Z,290.00
2023-04-24T06:59:16.048Z,283.00
2023-04-24T07:00:16.044Z,313.00
2023-04-24T07:01:16.041Z,253.00
2023-04-24T07:02:16.089Z,258.00
2023-04-24T07:03:16.176Z,264.00
2023-04-24T07:04:16.400Z,289.00
2023-04-24T07:05:15.989Z,269.00
2023-04-24T07:06:15.989Z,277.00
2023-04-24T07:07:16.116Z,258.00
2023-04-24T07:08:15.964Z,266.00
2023-04-24T07:09:16.020Z,266.00
2023-04-24T07:10:15.951Z,250.00
2023-04-24T07:11:15.940Z,210.00
2023-04-24T07:12:15.936Z,205.00
2023-04-24T07:13:15.942Z,208.00
2023-04-24T07:14:15.909Z,242.00
2023-04-24T07:15:15.931Z,273.00
2023-04-24T07:16:15.956Z,275.00
2023-04-24T07:17:15.890Z,255.00
2023-04-24T07:18:15.880Z,228.00
2023-04-24T07:19:15.873Z,205.00
2023-04-24T07:20:15.883Z,194.00
2023-04-24T07:21:15.862Z,206.00
2023-04-24T07:22:15.834Z,203.00
2023-04-24T07:23:15.824Z,198.00
2023-04-24T07:24:15.809Z,201.00
2023-04-24T07:25:15.818Z,185.00
2023-04-24T07:26:15.821Z,189.00
2023-04-24T07:27:16.000Z,190.00
2023-04-24T07:28:15.759Z,168.00
2023-04-24T07:29:15.754Z,169.00
2023-04-24T07:30:15.746Z,176.00
2023-04-24T07:31:15.799Z,181.00
2023-04-24T07:32:15.729Z,191.00
2023-04-24T07:33:15.782Z,197.00
2023-04-24T07:34:15.703Z,242.00
2023-04-24T07:35:15.688Z,255.00
2023-04-24T07:36:15.692Z,209.00
2023-04-24T07:37:15.687Z,184.00
2023-04-24T07:38:15.699Z,194.00
2023-04-24T07:39:15.684Z,206.00
2023-04-24T07:40:15.639Z,221.00
2023-04-24T07:41:15.633Z,238.00
2023-04-24T07:42:15.641Z,251.00
2023-04-24T07:43:15.612Z,260.00
2023-04-24T07:44:15.603Z,293.00
2023-04-24T07:45:15.619Z,252.00
2023-04-24T07:46:15.653Z,252.00
2023-04-24T07:47:15.582Z,259.00
2023-04-24T07:48:15.606Z,267.00
2023-04-24T07:49:17.100Z,271.00
2023-04-24T07:50:15.555Z,278.00
2023-04-24T07:51:15.642Z,288.00
2023-04-24T07:52:15.533Z,297.00
2023-04-24T07:53:15.523Z,306.00
2023-04-24T07:54:15.525Z,321.00
2023-04-24T07:55:15.495Z,338.00
2023-04-24T07:56:15.495Z,351.00
2023-04-24T07:57:15.521Z,362.00
2023-04-24T07:58:15.479Z,381.00
2023-04-24T07:59:15.467Z,401.00
2023-04-24T08:00:15.455Z,422.00
2023-04-24T08:01:15.435Z,455.00
2023-04-24T08:02:15.467Z,481.00
2023-04-24T08:03:15.551Z,568.00
2023-04-24T08:04:15.624Z,531.00
2023-04-24T08:05:15.532Z,553.00
2023-04-24T08:06:15.392Z,501.00
2023-04-24T08:07:15.377Z,396.00
2023-04-24T08:08:15.362Z,404.00
2023-04-24T08:09:15.372Z,413.00
2023-04-24T08:10:15.348Z,444.00
2023-04-24T08:11:15.340Z,480.00
2023-04-24T08:12:15.322Z,478.00
2023-04-24T08:13:15.342Z,518.00
2023-04-24T08:14:15.300Z,576.00
2023-04-24T08:15:15.329Z,480.00
2023-04-24T08:16:15.304Z,415.00
2023-04-24T08:17:15.279Z,422.00
2023-04-24T08:18:15.309Z,533.00
2023-04-24T08:19:15.258Z,542.00
2023-04-24T08:20:15.253Z,537.00
2023-04-24T08:21:15.256Z,528.00
2023-04-24T08:22:15.224Z,470.00
2023-04-24T08:23:15.201Z,415.00
2023-04-24T08:24:15.207Z,368.00
2023-04-24T08:25:15.198Z,381.00
2023-04-24T08:26:15.189Z,322.00
2023-04-24T08:27:15.217Z,349.00
2023-04-24T08:28:16.714Z,339.00
2023-04-24T08:29:15.148Z,350.00
2023-04-24T08:30:15.138Z,313.00
2023-04-24T08:31:15.164Z,324.00
2023-04-24T08:32:15.136Z,380.00
2023-04-24T08:33:15.157Z,389.00
2023-04-24T08:34:15.113Z,421.00
2023-04-24T08:35:15.090Z,369.00
2023-04-24T08:36:15.089Z,397.00
2023-04-24T08:37:15.078Z,440.00
2023-04-24T08:38:15.070Z,507.00
2023-04-24T08:39:15.093Z,479.00
2023-04-24T08:40:15.057Z,466.00
2023-04-24T08:41:15.032Z,440.00
2023-04-24T08:42:15.030Z,401.00
2023-04-24T08:43:15.016Z,335.00
2023-04-24T08:44:15.013Z,324.00
2023-04-24T08:45:14.997Z,289.00
2023-04-24T08:46:14.993Z,267.00
2023-04-24T08:47:16.240Z,224.00
2023-04-24T08:48:27.353Z,200.00
2023-04-24T08:49:15.944Z,199.00
2023-04-24T08:50:14.951Z,204.00
2023-04-24T08:51:14.943Z,214.00
2023-04-24T08:52:14.930Z,171.00
2023-04-24T08:53:14.902Z,183.00
2023-04-24T08:54:14.899Z,196.00
2023-04-24T08:55:14.888Z,233.00
2023-04-24T08:56:14.883Z,227.00
2023-04-24T08:57:14.905Z,228.00
2023-04-24T08:58:14.853Z,235.00
2023-04-24T08:59:14.898Z,276.00
2023-04-24T09:00:14.840Z,273.00
2023-04-24T09:01:14.847Z,223.00
2023-04-24T09:02:14.856Z,262.00
2023-04-24T09:03:14.931Z,273.00
2023-04-24T09:04:15.098Z,231.00
2023-04-24T09:05:14.792Z,216.00
2023-04-24T09:06:14.790Z,221.00
2023-04-24T09:07:14.768Z,236.00
2023-04-24T09:08:14.760Z,254.00
2023-04-24T09:09:14.775Z,287.00
2023-04-24T09:10:14.752Z,298.00
2023-04-24T09:11:14.741Z,330.00
2023-04-24T09:12:14.721Z,276.00
2023-04-24T09:13:14.722Z,308.00
2023-04-24T09:14:14.704Z,316.00
2023-04-24T09:15:14.719Z,287.00
2023-04-24T09:16:14.705Z,263.00
2023-04-24T09:17:14.739Z,270.00
2023-04-24T09:18:14.676Z,269.00
2023-04-24T09:19:14.653Z,263.00
2023-04-24T09:20:14.634Z,283.00
2023-04-24T09:21:14.664Z,327.00
2023-04-24T09:22:14.649Z,281.00
2023-04-24T09:23:14.602Z,272.00
2023-04-24T09:24:14.593Z,262.00
2023-04-24T09:25:14.587Z,274.00
2023-04-24T09:26:14.578Z,278.00
2023-04-24T09:27:14.597Z,256.00
2023-04-24T09:28:14.569Z,243.00
2023-04-24T09:29:14.545Z,243.00
2023-04-24T09:30:14.560Z,208.00
2023-04-24T09:31:14.575Z,188.00
2023-04-24T09:32:14.514Z,200.00
2023-04-24T09:33:14.913Z,233.00
2023-04-24T09:34:14.520Z,230.00
2023-04-24T09:35:14.484Z,227.00
2023-04-24T09:36:14.472Z,186.00
2023-04-24T09:37:14.468Z,184.00
2023-04-24T09:38:14.456Z,207.00
2023-04-24T09:39:14.463Z,208.00
2023-04-24T09:40:14.441Z,193.00
2023-04-24T09:41:14.431Z,205.00
2023-04-24T09:42:14.415Z,200.00
2023-04-24T09:43:14.420Z,193.00
2023-04-24T09:44:14.403Z,210.00
2023-04-24T09:45:15.745Z,204.00
2023-04-24T09:46:14.441Z,182.00
2023-04-24T09:47:14.373Z,185.00
2023-04-24T09:48:14.354Z,196.00
2023-04-24T09:49:14.351Z,211.00
2023-04-24T09:50:14.344Z,230.00
2023-04-24T09:51:14.351Z,199.00
2023-04-24T09:52:14.321Z,198.00
2023-04-24T09:53:14.312Z,210.00
2023-04-24T09:54:14.297Z,225.00
2023-04-24T09:55:14.307Z,200.00
2023-04-24T09:56:14.290Z,190.00
2023-04-24T09:57:14.305Z,190.00
2023-04-24T09:58:14.264Z,201.00
2023-04-24T09:59:14.268Z,169.00
2023-04-24T10:00:14.254Z,185.00
2023-04-24T10:01:14.262Z,180.00
2023-04-24T10:02:14.244Z,171.00
2023-04-24T10:03:14.464Z,160.00
2023-04-24T10:04:14.253Z,163.00
2023-04-24T10:05:14.178Z,175.00
2023-04-24T10:06:14.169Z,187.00
2023-04-24T10:07:14.164Z,248.00
2023-04-24T10:08:14.148Z,292.00
2023-04-24T10:09:14.177Z,279.00
2023-04-24T10:10:14.132Z,218.00
2023-04-24T10:11:14.119Z,220.00
2023-04-24T10:12:14.129Z,196.00
2023-04-24T10:13:14.112Z,216.00
2023-04-24T10:14:14.098Z,214.00
2023-04-24T10:15:14.116Z,204.00
2023-04-24T10:16:14.086Z,231.00
2023-04-24T10:17:14.068Z,224.00
2023-04-24T10:18:14.116Z,207.00
2023-04-24T10:19:14.055Z,257.00
2023-04-24T10:20:14.033Z,247.00
2023-04-24T10:21:14.038Z,209.00
2023-04-24T10:22:14.020Z,255.00
2023-04-24T10:23:14.014Z,226.00
2023-04-24T10:24:14.000Z,194.00
2023-04-24T10:25:13.999Z,182.00
2023-04-24T10:26:13.980Z,194.00
2023-04-24T10:27:13.998Z,196.00
2023-04-24T10:28:13.961Z,202.00
2023-04-24T10:29:14.030Z,210.00
2023-04-24T10:30:13.947Z,203.00
2023-04-24T10:31:13.982Z,198.00
2023-04-24T10:32:13.921Z,213.00
2023-04-24T10:33:13.940Z,221.00
2023-04-24T10:34:13.896Z,226.00
2023-04-24T10:35:13.890Z,189.00
2023-04-24T10:36:13.890Z,177.00
2023-04-24T10:37:13.869Z,193.00
2023-04-24T10:38:13.861Z,209.00
2023-04-24T10:39:13.884Z,228.00
2023-04-24T10:40:13.834Z,199.00
2023-04-24T10:41:13.809Z,187.00
2023-04-24T10:42:13.799Z,203.00
2023-04-24T10:43:13.796Z,172.00
2023-04-24T10:44:13.776Z,180.00
2023-04-24T10:45:13.801Z,211.00
2023-04-24T10:46:13.789Z,221.00
2023-04-24T10:47:13.798Z,258.00
2023-04-24T10:48:13.765Z,292.00
2023-04-24T10:49:13.749Z,323.00
2023-04-24T10:50:13.721Z,306.00
2023-04-24T10:51:13.744Z,276.00
2023-04-24T10:52:13.702Z,252.00
2023-04-24T10:53:13.692Z,231.00
2023-04-24T10:54:13.683Z,213.00
2023-04-24T10:55:13.686Z,226.00
2023-04-24T10:56:13.663Z,239.00
2023-04-24T10:57:13.670Z,275.00
2023-04-24T10:58:13.646Z,262.00
2023-04-24T10:59:13.641Z,245.00
2023-04-24T11:00:13.636Z,264.00
2023-04-24T11:01:13.673Z,283.00
2023-04-24T11:02:13.651Z,296.00
2023-04-24T11:03:13.709Z,401.00
2023-04-24T11:04:13.653Z,415.00
2023-04-24T11:05:13.592Z,294.00
2023-04-24T11:06:13.566Z,323.00
2023-04-24T11:07:13.562Z,450.00
2023-04-24T11:08:13.553Z,394.00
2023-04-24T11:09:13.560Z,365.00
2023-04-24T11:10:13.537Z,332.00
2023-04-24T11:11:13.521Z,248.00
2023-04-24T11:12:13.502Z,257.00
2023-04-24T11:13:13.502Z,212.00
2023-04-24T11:14:13.487Z,217.00
2023-04-24T11:15:13.612Z,269.00
2023-04-24T11:16:13.560Z,266.00
2023-04-24T11:17:13.498Z,228.00
2023-04-24T11:18:13.433Z,244.00
2023-04-24T11:19:13.434Z,316.00
2023-04-24T11:20:26.981Z,330.00
2023-04-24T11:21:14.449Z,288.00
2023-04-24T11:22:13.401Z,316.00
2023-04-24T11:23:13.392Z,280.00
2023-04-24T11:24:13.377Z,235.00
2023-04-24T11:25:13.386Z,238.00
2023-04-24T11:26:13.369Z,261.00
2023-04-24T11:27:13.374Z,380.00
2023-04-24T11:28:13.336Z,315.00
2023-04-24T11:29:13.332Z,321.00
2023-04-24T11:30:13.388Z,348.00
2023-04-24T11:31:13.322Z,394.00
2023-04-24T11:32:13.423Z,320.00
2023-04-24T11:33:13.369Z,259.00
2023-04-24T11:34:13.271Z,260.00
2023-04-24T11:35:14.135Z,262.00
2023-04-24T11:36:14.165Z,314.00
2023-04-24T11:37:13.253Z,360.00
2023-04-24T11:38:23.994Z,264.00
2023-04-24T11:39:14.271Z,303.00
2023-04-24T11:40:13.265Z,324.00
2023-04-24T11:41:13.217Z,286.00
2023-04-24T11:42:13.196Z,271.00
2023-04-24T11:43:13.206Z,284.00
2023-04-24T11:44:13.200Z,318.00
2023-04-24T11:45:13.210Z,239.00
2023-04-24T11:46:13.235Z,281.00
2023-04-24T11:47:13.150Z,317.00
2023-04-24T11:48:13.150Z,358.00
2023-04-24T11:49:13.142Z,271.00
2023-04-24T11:50:13.124Z,238.00
2023-04-24T11:51:13.137Z,197.00
2023-04-24T11:52:13.099Z,207.00
2023-04-24T11:53:13.125Z,219.00
2023-04-24T11:54:13.072Z,222.00
2023-04-24T11:55:13.059Z,316.00
2023-04-24T11:56:13.075Z,198.00
2023-04-24T11:57:13.083Z,201.00
2023-04-24T11:58:13.033Z,246.00
2023-04-24T11:59:13.031Z,225.00
2023-04-24T12:00:13.080Z,228.00
2023-04-24T12:01:13.015Z,205.00
2023-04-24T12:02:13.138Z,192.00
2023-04-24T12:03:13.468Z,253.00
2023-04-24T12:04:13.244Z,248.00
2023-04-24T12:05:13.291Z,189.00
2023-04-24T12:06:13.144Z,207.00
2023-04-24T12:07:12.948Z,214.00
2023-04-24T12:08:12.932Z,210.00
2023-04-24T12:09:18.241Z,205.00
2023-04-24T12:10:13.942Z,196.00
2023-04-24T12:11:12.904Z,221.00
2023-04-24T12:12:13.395Z,242.00
2023-04-24T12:13:12.884Z,219.00
2023-04-24T12:14:12.876Z,221.00
2023-04-24T12:15:12.903Z,238.00
2023-04-24T12:16:12.976Z,264.00
2023-04-24T12:17:12.855Z,290.00
2023-04-24T12:18:12.863Z,325.00
2023-04-24T12:19:12.839Z,349.00
2023-04-24T12:20:12.831Z,392.00
2023-04-24T12:21:12.850Z,470.00
2023-04-24T12:22:12.842Z,513.00
2023-04-24T12:23:12.796Z,501.00
2023-04-24T12:24:12.793Z,401.00
2023-04-24T12:25:12.776Z,435.00
2023-04-24T12:26:12.764Z,472.00
2023-04-24T12:27:12.792Z,411.00
2023-04-24T12:28:12.765Z,312.00
2023-04-24T12:29:12.736Z,258.00
2023-04-24T12:30:12.726Z,278.00
2023-04-24T12:31:12.764Z,222.00
2023-04-24T12:32:12.695Z,232.00
2023-04-24T12:33:12.790Z,251.00
2023-04-24T12:34:12.683Z,275.00
2023-04-24T12:35:12.672Z,297.00
2023-04-24T12:36:12.660Z,398.00
2023-04-24T12:37:12.656Z,482.00
2023-04-24T12:38:12.633Z,317.00
2023-04-24T12:39:12.657Z,250.00
2023-04-24T12:40:12.611Z,274.00
2023-04-24T12:41:12.624Z,237.00
2023-04-24T12:42:12.592Z,199.00
2023-04-24T12:43:12.600Z,197.00
2023-04-24T12:44:12.572Z,203.00
2023-04-24T12:45:12.592Z,214.00